^^
Station Historical Data
Daily Summary for June 14, 2017 Units:  English    Metric   Both
« Previous Day
Next Day »
Daily Weekly Monthly Yearly Custom
  High: Low: Average:
Temperature: 84.1 °F 64.6 °F 74.9 °F
Dew Point: 68.6 °F 47.7 °F 59.9 °F
Humidity: 88% 30% 62%
Wind Speed: 5.0mph 0.0mph 1mph
Wind Gust: 12.0mph - -
Wind- - WNW
Pressure: 30.04 in 29.88 in -
Precipitation: 0.00 in    
Historical Graphs
 
 
Tabular Data for June 14, 2017
Time Temperature Dew Point Pressure Wind Wind Speed Wind Gust Humidity Rainfall Rate (Hourly) Conditions
00:00 78.0 °F 68.6 °F 29.88 in WNW 1.0 mph 4.0 mph 73% 0.00 in SCT
00:15 78.2 °F 67.6 °F 29.88 in NNW 1.0 mph 8.0 mph 70% 0.00 in SCT
00:30 77.9 °F 67.8 °F 29.88 in NW 3.0 mph 8.0 mph 71% 0.00 in SCT
00:45 77.2 °F 67.1 °F 29.88 in NNW 5.0 mph 9.0 mph 71% 0.00 in SCT
02:15 74.6 °F 65.0 °F 29.88 in WNW 1.0 mph 6.0 mph 72% 0.00 in CLR
02:30 74.2 °F 64.6 °F 29.89 in Calm   4.0 mph 72% 0.00 in CLR
02:45 74.0 °F 64.8 °F 29.89 in NNW 1.0 mph 7.0 mph 73% 0.00 in CLR
03:00 73.6 °F 64.8 °F 29.89 in NW 1.0 mph 4.0 mph 74% 0.00 in CLR
03:15 73.3 °F 64.9 °F 29.90 in NW 1.0 mph 5.0 mph 75% 0.00 in SCT
03:30 72.9 °F 64.9 °F 29.90 in Calm   6.0 mph 76% 0.00 in SCT
03:45 72.7 °F 65.0 °F 29.90 in Calm   6.0 mph 77% 0.00 in SCT
04:00 72.4 °F 65.2 °F 29.90 in Calm   2.0 mph 78% 0.00 in SCT
04:30 72.4 °F 65.1 °F 29.92 in Calm   1.0 mph 78% 0.00 in BKN
04:45 72.2 °F 65.3 °F 29.92 in Calm   2.0 mph 79% 0.00 in BKN
05:15 71.7 °F 65.2 °F 29.93 in Calm   2.0 mph 80% 0.00 in BKN
05:30 71.6 °F 65.1 °F 29.92 in Calm   1.0 mph 80% 0.00 in BKN
05:45 71.5 °F 65.0 °F 29.93 in Calm   2.0 mph 80% 0.00 in BKN
06:00 71.3 °F 64.8 °F 29.94 in NW 1.0 mph 4.0 mph 80% 0.00 in BKN
06:15 71.4 °F 65.3 °F 29.95 in Calm   2.0 mph 81% 0.00 in BKN
06:30 71.5 °F 65.4 °F 29.95 in Calm   3.0 mph 81% 0.00 in BKN
06:45 70.8 °F 66.1 °F 29.96 in Calm   2.0 mph 85% 0.00 in BKN
07:00 69.9 °F 65.9 °F 29.98 in WNW 1.0 mph 3.0 mph 87% 0.00 in BKN
07:15 69.6 °F 65.9 °F 29.97 in Calm   1.0 mph 88% 0.00 in BKN
07:30 69.5 °F 65.8 °F 29.98 in Calm   1.0 mph 88% 0.00 in BKN
07:45 69.5 °F 65.8 °F 29.98 in Calm   1.0 mph 88% 0.00 in BKN
08:00 69.5 °F 65.5 °F 29.99 in WNW 1.0 mph 3.0 mph 87% 0.00 in BKN
08:15 69.4 °F 64.7 °F 29.99 in NW 1.0 mph 4.0 mph 85% 0.00 in BKN
08:30 69.3 °F 63.2 °F 30.00 in Calm   4.0 mph 81% 0.00 in BKN
08:45 69.6 °F 63.2 °F 30.00 in Calm   3.0 mph 80% 0.00 in BKN
09:00 69.9 °F 62.0 °F 30.00 in NW 1.0 mph 5.0 mph 76% 0.00 in BKN
09:15 70.2 °F 61.9 °F 30.00 in Calm   6.0 mph 75% 0.00 in BKN
09:30 72.4 °F 62.5 °F 30.00 in NW 1.0 mph 5.0 mph 71% 0.00 in BKN
09:45 73.5 °F 62.7 °F 30.00 in NW 3.0 mph 6.0 mph 69% 0.00 in BKN
10:00 74.2 °F 63.4 °F 30.00 in Calm   9.0 mph 69% 0.00 in BKN
10:15 75.2 °F 63.1 °F 30.00 in NW 3.0 mph 7.0 mph 66% 0.00 in BKN
10:45 74.4 °F 62.3 °F 30.00 in Calm   9.0 mph 66% 0.00 in BKN
11:00 75.8 °F 62.8 °F 30.00 in ESE 1.0 mph 8.0 mph 64% 0.00 in BKN
11:15 77.5 °F 63.0 °F 30.00 in NW 2.0 mph 7.0 mph 61% 0.00 in SCT
11:30 77.8 °F 62.8 °F 29.99 in NW 5.0 mph 7.0 mph 60% 0.00 in SCT
11:45 78.3 °F 63.8 °F 30.00 in SW 1.0 mph 7.0 mph 61% 0.00 in SCT
12:15 77.7 °F 62.7 °F 30.00 in NNW 2.0 mph 7.0 mph 60% 0.00 in FEW
12:30 77.9 °F 62.4 °F 30.00 in NW 3.0 mph 9.0 mph 59% 0.00 in FEW
12:45 78.9 °F 62.4 °F 30.00 in NNW 5.0 mph 9.0 mph 57% 0.00 in FEW
13:00 78.3 °F 61.8 °F 30.00 in West 1.0 mph 8.0 mph 57% 0.00 in FEW
13:15 78.9 °F 60.9 °F 29.99 in NNW 3.0 mph 12.0 mph 54% 0.00 in SCT
13:30 79.6 °F 61.5 °F 29.99 in West 2.0 mph 8.0 mph 54% 0.00 in SCT
13:45 80.2 °F 61.0 °F 29.98 in West 3.0 mph 8.0 mph 52% 0.00 in SCT
14:00 79.9 °F 60.7 °F 29.98 in NNE 3.0 mph 8.0 mph 52% 0.00 in SCT
14:15 80.2 °F 59.9 °F 29.97 in NW 5.0 mph 8.0 mph 50% 0.00 in SCT
14:30 80.7 °F 60.3 °F 29.97 in SSE 2.0 mph 9.0 mph 50% 0.00 in SCT
14:45 80.8 °F 59.9 °F 29.97 in NNW 1.0 mph 6.0 mph 49% 0.00 in SCT
15:00 80.7 °F 59.8 °F 29.96 in NNW 2.0 mph 6.0 mph 49% 0.00 in SCT
15:15 81.4 °F 59.9 °F 29.96 in NW 1.0 mph 6.0 mph 48% 0.00 in FEW
15:30 81.0 °F 57.6 °F 29.97 in NE 1.0 mph 8.0 mph 45% 0.00 in FEW
15:45 80.6 °F 54.7 °F 29.97 in NW 2.0 mph 6.0 mph 41% 0.00 in FEW
16:00 81.4 °F 55.4 °F 29.97 in NNE 2.0 mph 8.0 mph 41% 0.00 in FEW
16:15 81.4 °F 53.4 °F 29.97 in NW 2.0 mph 8.0 mph 38% 0.00 in FEW
16:30 81.7 °F 50.6 °F 29.97 in WNW 3.0 mph 8.0 mph 34% 0.00 in FEW
16:45 81.8 °F 50.7 °F 29.97 in NNW 2.0 mph 6.0 mph 34% 0.00 in FEW
17:00 82.1 °F 52.5 °F 29.97 in WNW 2.0 mph 7.0 mph 36% 0.00 in FEW
17:15 82.8 °F 53.1 °F 29.97 in NW 1.0 mph 4.0 mph 36% 0.00 in FEW
17:30 83.3 °F 49.5 °F 29.96 in Calm   4.0 mph 31% 0.00 in FEW
17:45 82.8 °F 52.4 °F 29.96 in NW 1.0 mph 4.0 mph 35% 0.00 in FEW
18:00 83.2 °F 52.7 °F 29.96 in NW 1.0 mph 4.0 mph 35% 0.00 in FEW
18:30 82.9 °F 50.9 °F 29.96 in NW 1.0 mph 3.0 mph 33% 0.00 in CLR
18:45 82.3 °F 47.7 °F 29.96 in Calm   3.0 mph 30% 0.00 in CLR
19:00 84.1 °F 56.5 °F 29.96 in Calm   2.0 mph 39% 0.00 in CLR
19:15 81.1 °F 57.1 °F 29.96 in SSW 2.0 mph 7.0 mph 44% 0.00 in CLR
19:30 78.8 °F 57.5 °F 29.97 in Calm   4.0 mph 48% 0.00 in CLR
19:45 77.8 °F 57.1 °F 29.97 in SSW 1.0 mph 4.0 mph 49% 0.00 in CLR
20:00 75.7 °F 56.8 °F 29.97 in Calm   4.0 mph 52% 0.00 in CLR
20:15 74.0 °F 56.8 °F 29.98 in Calm   2.0 mph 55% 0.00 in CLR
20:30 72.5 °F 56.4 °F 29.98 in Calm   2.0 mph 57% 0.00 in CLR
20:45 71.3 °F 56.3 °F 29.98 in Calm   1.0 mph 59% 0.00 in CLR
21:00 70.3 °F 55.3 °F 29.99 in Calm   1.0 mph 59% 0.00 in CLR
21:15 69.6 °F 54.6 °F 30.00 in Calm     59% 0.00 in CLR
21:30 68.5 °F 54.5 °F 30.00 in Calm     61% 0.00 in CLR
21:45 67.6 °F 53.2 °F 30.01 in Calm   1.0 mph 60% 0.00 in CLR
22:00 67.2 °F 52.9 °F 30.01 in Calm     60% 0.00 in CLR
22:15 66.9 °F 52.6 °F 30.02 in Calm     60% 0.00 in CLR
22:30 66.3 °F 52.4 °F 30.02 in Calm     61% 0.00 in CLR
22:45 65.8 °F 52.5 °F 30.03 in Calm     62% 0.00 in CLR
23:00 65.5 °F 52.1 °F 30.03 in Calm     62% 0.00 in CLR
23:15 65.2 °F 52.3 °F 30.03 in Calm   1.0 mph 63% 0.00 in CLR
23:30 64.8 °F 52.8 °F 30.04 in Calm     65% 0.00 in CLR
23:45 64.6 °F 52.5 °F 30.03 in Calm     65% 0.00 in CLR
TarryTown NY Weather
Compliments of Weather Underground - 1.5 mb